createdAt,value
2022-08-20T00:00:51.432Z,18.80
2022-08-20T00:03:56.910Z,18.80
2022-08-20T00:06:49.990Z,18.80
2022-08-20T00:09:40.136Z,18.80
2022-08-20T00:12:46.958Z,18.80
2022-08-20T00:15:38.098Z,18.80
2022-08-20T00:18:27.882Z,18.80
2022-08-20T00:21:21.310Z,18.80
2022-08-20T00:24:13.467Z,18.80
2022-08-20T00:27:03.752Z,18.80
2022-08-20T00:29:52.023Z,18.80
2022-08-20T00:32:47.559Z,18.80
2022-08-20T00:35:56.856Z,18.80
2022-08-20T00:38:49.411Z,18.80
2022-08-20T00:41:40.422Z,18.80
2022-08-20T00:44:34.952Z,18.80
2022-08-20T00:47:23.543Z,18.80
2022-08-20T00:50:18.535Z,18.90
2022-08-20T00:53:08.556Z,18.80
2022-08-20T00:55:58.513Z,18.80
2022-08-20T00:58:50.956Z,18.80
2022-08-20T01:01:55.178Z,18.90
2022-08-20T01:04:52.638Z,18.90
2022-08-20T01:07:50.041Z,18.90
2022-08-20T01:10:52.412Z,18.80
2022-08-20T01:13:43.834Z,18.90
2022-08-20T01:16:33.909Z,18.90
2022-08-20T01:19:29.735Z,18.90
2022-08-20T01:22:58.750Z,18.90
2022-08-20T01:25:50.570Z,18.90
2022-08-20T01:28:43.535Z,18.90
2022-08-20T01:31:34.180Z,18.90
2022-08-20T01:34:22.571Z,18.90
2022-08-20T01:37:10.941Z,18.90
2022-08-20T01:39:59.333Z,18.80
2022-08-20T01:42:58.507Z,18.80
2022-08-20T01:45:57.308Z,18.80
2022-08-20T01:49:13.570Z,18.80
2022-08-20T01:52:09.876Z,18.80
2022-08-20T01:54:59.410Z,18.80
2022-08-20T01:57:49.479Z,18.80
2022-08-20T02:00:52.366Z,18.80
2022-08-20T02:03:59.277Z,18.80
2022-08-20T02:06:56.675Z,18.80
2022-08-20T02:09:47.487Z,18.80
2022-08-20T02:12:35.789Z,18.80
2022-08-20T02:15:37.211Z,18.80
2022-08-20T02:18:25.782Z,18.70
2022-08-20T02:21:15.459Z,18.70
2022-08-20T02:24:06.001Z,18.70
2022-08-20T02:26:57.715Z,18.70
2022-08-20T02:29:46.734Z,18.70
2022-08-20T02:32:40.765Z,18.70
2022-08-20T02:35:30.088Z,18.70
2022-08-20T02:38:18.630Z,18.70
2022-08-20T02:41:13.395Z,18.70
2022-08-20T02:44:01.647Z,18.70
2022-08-20T02:46:50.053Z,18.70
2022-08-20T02:49:49.471Z,18.70
2022-08-20T02:52:51.642Z,18.70
2022-08-20T02:55:43.922Z,18.70
2022-08-20T02:58:35.291Z,18.70
2022-08-20T03:01:30.922Z,18.70
2022-08-20T03:04:24.089Z,18.70
2022-08-20T03:07:19.442Z,18.70
2022-08-20T03:10:20.112Z,18.60
2022-08-20T03:13:26.016Z,18.70
2022-08-20T03:16:15.596Z,18.60
2022-08-20T03:19:08.551Z,18.60
2022-08-20T03:21:56.823Z,18.60
2022-08-20T03:24:54.042Z,18.60
2022-08-20T03:27:54.600Z,18.60
2022-08-20T03:31:00.590Z,18.60
2022-08-20T03:36:56.545Z,18.60
2022-08-20T03:39:49.202Z,18.60
2022-08-20T03:42:43.003Z,18.60
2022-08-20T03:45:32.514Z,18.60
2022-08-20T03:48:23.779Z,18.60
2022-08-20T03:51:12.000Z,18.60
2022-08-20T03:54:00.765Z,18.60
2022-08-20T03:56:58.157Z,18.60
2022-08-20T03:59:46.462Z,18.60
2022-08-20T04:02:57.223Z,18.60
2022-08-20T04:05:46.702Z,18.60
2022-08-20T04:08:48.373Z,18.60
2022-08-20T04:11:37.506Z,18.60
2022-08-20T04:14:29.315Z,18.60
2022-08-20T04:17:19.784Z,18.60
2022-08-20T04:20:16.034Z,18.70
2022-08-20T04:23:06.723Z,18.70
2022-08-20T04:25:58.460Z,18.70
2022-08-20T04:28:46.936Z,18.80
2022-08-20T04:31:38.192Z,18.70
2022-08-20T04:34:32.332Z,18.80
2022-08-20T04:37:41.999Z,18.80
2022-08-20T04:40:59.004Z,18.80
2022-08-20T04:44:07.207Z,18.80
2022-08-20T04:47:07.953Z,18.80
2022-08-20T04:53:16.231Z,18.90
2022-08-20T04:56:19.732Z,18.90
2022-08-20T04:59:12.159Z,18.90
2022-08-20T05:02:02.535Z,19.00
2022-08-20T05:04:52.822Z,19.00
2022-08-20T05:08:20.116Z,19.00
2022-08-20T05:11:32.764Z,19.00
2022-08-20T05:14:18.961Z,19.10
2022-08-20T05:17:25.828Z,19.10
2022-08-20T05:20:25.336Z,19.10
2022-08-20T05:23:15.496Z,19.20
2022-08-20T05:26:07.356Z,19.20
2022-08-20T05:29:00.029Z,19.20
2022-08-20T05:32:05.072Z,19.20
2022-08-20T05:35:07.589Z,19.20
2022-08-20T05:37:56.088Z,19.30
2022-08-20T05:40:49.092Z,19.30
2022-08-20T05:43:41.713Z,19.40
2022-08-20T05:46:58.576Z,19.30
2022-08-20T05:50:01.158Z,19.40
2022-08-20T05:52:52.474Z,19.50
2022-08-20T05:55:41.013Z,19.50
2022-08-20T05:58:32.828Z,19.60
2022-08-20T06:01:23.762Z,19.50
2022-08-20T06:04:29.205Z,19.60
2022-08-20T06:07:17.957Z,19.60
2022-08-20T06:10:10.764Z,19.60
2022-08-20T06:13:02.941Z,19.70
2022-08-20T06:15:51.206Z,19.70
2022-08-20T06:18:39.527Z,19.70
2022-08-20T06:21:28.149Z,19.80
2022-08-20T06:24:16.365Z,19.80
2022-08-20T06:27:06.957Z,19.90
2022-08-20T06:29:55.854Z,19.90
2022-08-20T06:32:44.132Z,19.90
2022-08-20T06:35:32.904Z,19.90
2022-08-20T06:38:21.300Z,19.90
2022-08-20T06:41:09.525Z,19.90
2022-08-20T06:44:00.496Z,19.90
2022-08-20T06:46:48.665Z,20.00
2022-08-20T06:49:37.757Z,20.00
2022-08-20T06:52:51.913Z,20.00
2022-08-20T06:55:34.610Z,20.00
2022-08-20T06:58:36.208Z,20.00
2022-08-20T07:01:28.234Z,20.10
2022-08-20T07:04:16.777Z,20.10
2022-08-20T07:07:07.510Z,20.20
2022-08-20T07:10:00.687Z,20.20
2022-08-20T07:12:50.962Z,20.30
2022-08-20T07:15:39.929Z,20.40
2022-08-20T07:18:29.568Z,20.40
2022-08-20T07:21:18.310Z,20.50
2022-08-20T07:24:06.857Z,20.50
2022-08-20T07:26:56.987Z,20.60
2022-08-20T07:30:02.727Z,20.60
2022-08-20T07:32:53.432Z,20.70
2022-08-20T07:35:48.747Z,20.80
2022-08-20T07:38:37.035Z,20.80
2022-08-20T07:41:30.971Z,20.90
2022-08-20T07:44:21.599Z,20.90
2022-08-20T07:47:20.107Z,21.00
2022-08-20T07:50:10.010Z,21.00
2022-08-20T07:53:00.488Z,21.00
2022-08-20T07:55:51.164Z,21.10
2022-08-20T07:58:52.993Z,21.10
2022-08-20T08:01:41.259Z,21.10
2022-08-20T08:04:30.515Z,21.20
2022-08-20T08:07:18.964Z,21.20
2022-08-20T08:10:12.823Z,21.20
2022-08-20T08:13:05.450Z,21.20
2022-08-20T08:15:57.357Z,21.30
2022-08-20T08:18:56.252Z,21.40
2022-08-20T08:21:45.346Z,21.40
2022-08-20T08:24:35.168Z,21.50
2022-08-20T08:27:24.840Z,21.60
2022-08-20T08:30:13.903Z,21.60
2022-08-20T08:33:19.463Z,21.70
2022-08-20T08:36:10.642Z,21.70
2022-08-20T08:38:58.932Z,21.70
2022-08-20T08:41:49.569Z,21.80
2022-08-20T08:44:42.786Z,21.90
2022-08-20T08:47:35.889Z,22.10
2022-08-20T08:50:50.130Z,22.10
2022-08-20T08:53:39.945Z,22.20
2022-08-20T08:56:30.714Z,22.20
2022-08-20T08:59:21.283Z,22.20
2022-08-20T09:02:22.428Z,22.30
2022-08-20T09:05:17.347Z,22.30
2022-08-20T09:08:16.729Z,22.40
2022-08-20T09:11:08.960Z,22.50
2022-08-20T09:13:57.486Z,22.60
2022-08-20T09:16:52.983Z,22.70
2022-08-20T09:19:46.507Z,22.70
2022-08-20T09:22:34.814Z,22.70
2022-08-20T09:25:26.417Z,22.70
2022-08-20T09:28:14.647Z,22.70
2022-08-20T09:31:03.356Z,22.70
2022-08-20T09:33:53.499Z,22.70
2022-08-20T09:36:43.053Z,22.70
2022-08-20T09:39:31.313Z,22.70
2022-08-20T09:42:23.775Z,22.70
2022-08-20T09:45:13.211Z,22.80
2022-08-20T09:48:01.481Z,22.80
2022-08-20T09:50:50.497Z,22.80
2022-08-20T09:53:40.166Z,22.90
2022-08-20T09:56:29.158Z,23.00
2022-08-20T09:59:17.546Z,23.10
2022-08-20T10:02:08.845Z,23.20
2022-08-20T10:04:57.553Z,23.30
2022-08-20T10:07:45.801Z,23.30
2022-08-20T10:10:39.074Z,23.30
2022-08-20T10:13:29.502Z,23.40
2022-08-20T10:16:17.697Z,23.60
2022-08-20T10:19:06.657Z,23.60
2022-08-20T10:21:57.507Z,23.50
2022-08-20T10:24:45.710Z,23.50
2022-08-20T10:27:36.797Z,23.50
2022-08-20T10:30:27.673Z,23.60
2022-08-20T10:33:15.933Z,23.80
2022-08-20T10:36:08.101Z,23.70
2022-08-20T10:38:56.284Z,23.60
2022-08-20T10:41:44.537Z,23.70
2022-08-20T10:44:35.684Z,23.80
2022-08-20T10:47:26.319Z,23.80
2022-08-20T10:50:20.045Z,23.90
2022-08-20T10:53:08.345Z,23.90
2022-08-20T10:55:57.564Z,23.80
2022-08-20T10:58:45.773Z,23.90
2022-08-20T11:01:36.958Z,23.90
2022-08-20T11:04:25.331Z,23.80
2022-08-20T11:07:16.287Z,23.80
2022-08-20T11:10:09.296Z,23.90
2022-08-20T11:13:00.088Z,23.90
2022-08-20T11:15:48.378Z,23.90
2022-08-20T11:18:38.042Z,23.90
2022-08-20T11:21:29.321Z,23.90
2022-08-20T11:24:18.924Z,23.90
2022-08-20T11:27:08.662Z,23.90
2022-08-20T11:29:57.085Z,23.90
2022-08-20T11:32:45.429Z,24.00
2022-08-20T11:35:49.448Z,24.10
2022-08-20T11:38:38.373Z,24.10
2022-08-20T11:41:26.578Z,24.10
2022-08-20T11:44:21.091Z,24.10
2022-08-20T11:47:20.272Z,24.20
2022-08-20T11:50:11.575Z,24.40
2022-08-20T11:53:01.576Z,24.50
2022-08-20T11:55:56.960Z,24.60
2022-08-20T11:58:46.012Z,24.40
2022-08-20T12:01:34.231Z,24.40
2022-08-20T12:04:23.713Z,24.40
2022-08-20T12:07:16.932Z,24.30
2022-08-20T12:10:09.889Z,24.50
2022-08-20T12:12:58.678Z,24.40
2022-08-20T12:15:47.022Z,24.40
2022-08-20T12:18:35.234Z,24.40
2022-08-20T12:21:23.517Z,24.40
2022-08-20T12:24:11.736Z,24.60
2022-08-20T12:27:11.286Z,24.60
2022-08-20T12:30:02.562Z,24.70
2022-08-20T12:32:50.930Z,24.90
2022-08-20T12:35:39.211Z,25.00
2022-08-20T12:38:32.412Z,25.10
2022-08-20T12:41:23.259Z,25.20
2022-08-20T12:44:13.243Z,25.40
2022-08-20T12:47:10.427Z,25.40
2022-08-20T12:50:05.193Z,25.40
2022-08-20T12:52:53.413Z,25.40
2022-08-20T12:55:43.325Z,25.40
2022-08-20T12:58:31.554Z,25.40
2022-08-20T13:01:21.181Z,25.40
2022-08-20T13:04:09.456Z,25.60
2022-08-20T13:07:01.762Z,25.80
2022-08-20T13:09:50.042Z,25.90
2022-08-20T13:12:38.594Z,26.00
2022-08-20T13:15:27.077Z,26.10
2022-08-20T13:18:16.698Z,26.20
2022-08-20T13:21:05.037Z,26.40
2022-08-20T13:23:55.577Z,26.50
2022-08-20T13:26:43.843Z,26.50
2022-08-20T13:29:32.026Z,26.70
2022-08-20T13:32:20.926Z,26.90
2022-08-20T13:35:12.451Z,26.90
2022-08-20T13:38:00.694Z,26.90
2022-08-20T13:40:49.102Z,27.10
2022-08-20T13:43:37.410Z,27.40
2022-08-20T13:46:25.654Z,27.60
2022-08-20T13:49:14.101Z,27.40
2022-08-20T13:52:04.138Z,27.40
2022-08-20T13:54:54.626Z,27.60
2022-08-20T13:57:43.230Z,27.60
2022-08-20T14:00:33.572Z,27.50
2022-08-20T14:03:25.230Z,27.70
2022-08-20T14:06:15.570Z,28.00
2022-08-20T14:09:05.259Z,28.10
2022-08-20T14:11:53.449Z,28.30
2022-08-20T14:14:44.393Z,28.10
2022-08-20T14:17:34.617Z,28.20
2022-08-20T14:20:25.692Z,28.20
2022-08-20T14:23:17.663Z,28.00
2022-08-20T14:26:10.886Z,28.20
2022-08-20T14:28:59.150Z,28.40
2022-08-20T14:31:47.433Z,28.50
2022-08-20T14:34:36.118Z,28.60
2022-08-20T14:37:27.564Z,28.40
2022-08-20T14:40:18.310Z,28.50
2022-08-20T14:43:08.039Z,28.40
2022-08-20T14:45:56.427Z,28.40
2022-08-20T14:48:44.726Z,28.50
2022-08-20T14:51:41.543Z,29.00
2022-08-20T14:54:29.805Z,29.80
2022-08-20T14:57:21.272Z,30.50
2022-08-20T15:00:15.750Z,30.80
2022-08-20T15:03:04.057Z,30.60
2022-08-20T15:05:52.309Z,30.30
2022-08-20T15:08:44.583Z,30.00
2022-08-20T15:11:34.672Z,29.50
2022-08-20T15:14:24.351Z,29.30
2022-08-20T15:17:19.837Z,28.90
2022-08-20T15:20:20.735Z,28.80
2022-08-20T15:23:09.280Z,28.60
2022-08-20T15:25:57.493Z,28.40
2022-08-20T15:28:45.779Z,28.10
2022-08-20T15:31:34.035Z,27.90
2022-08-20T15:34:25.530Z,27.60
2022-08-20T15:37:15.565Z,27.50
2022-08-20T15:40:06.993Z,27.30
2022-08-20T15:42:55.377Z,27.20
2022-08-20T15:45:43.789Z,27.10
2022-08-20T15:48:37.698Z,26.80
2022-08-20T15:51:34.040Z,26.60
2022-08-20T15:54:26.146Z,26.30
2022-08-20T15:57:20.000Z,26.30
2022-08-20T16:00:13.946Z,26.30
2022-08-20T16:03:29.445Z,26.20
2022-08-20T16:06:20.139Z,26.10
2022-08-20T16:09:27.018Z,25.90
2022-08-20T16:12:20.576Z,25.90
2022-08-20T16:15:12.405Z,25.80
2022-08-20T16:18:06.889Z,25.90
2022-08-20T16:20:58.787Z,25.90
2022-08-20T16:23:52.060Z,25.80
2022-08-20T16:27:09.934Z,25.70
2022-08-20T16:30:04.828Z,25.60
2022-08-20T16:33:04.122Z,25.40
2022-08-20T16:35:58.637Z,25.40
2022-08-20T16:38:51.251Z,25.40
2022-08-20T16:41:42.527Z,25.50
2022-08-20T16:44:35.084Z,25.50
2022-08-20T16:47:29.226Z,25.60
2022-08-20T16:50:21.681Z,25.60
2022-08-20T16:53:18.105Z,25.70
2022-08-20T16:56:07.006Z,25.60
2022-08-20T16:58:56.837Z,25.70
2022-08-20T17:01:52.984Z,25.60
2022-08-20T17:04:59.259Z,25.50
2022-08-20T17:07:51.581Z,25.30
2022-08-20T17:10:56.121Z,25.20
2022-08-20T17:13:47.206Z,25.10
2022-08-20T17:16:37.879Z,25.10
2022-08-20T17:19:30.254Z,24.90
2022-08-20T17:22:20.613Z,24.70
2022-08-20T17:25:15.210Z,24.60
2022-08-20T17:28:14.266Z,24.60
2022-08-20T17:31:02.491Z,24.40
2022-08-20T17:33:52.413Z,24.30
2022-08-20T17:36:50.657Z,24.20
2022-08-20T17:39:50.539Z,24.10
2022-08-20T17:42:49.528Z,24.00
2022-08-20T17:45:43.980Z,23.90
2022-08-20T17:48:36.321Z,23.80
2022-08-20T17:51:29.099Z,23.70
2022-08-20T17:54:22.857Z,23.60
2022-08-20T17:57:14.748Z,23.50
2022-08-20T18:00:07.598Z,23.30
2022-08-20T18:03:03.034Z,23.30
2022-08-20T18:06:00.031Z,23.30
2022-08-20T18:08:58.564Z,23.20
2022-08-20T18:11:57.805Z,23.10
2022-08-20T18:14:58.287Z,23.10
2022-08-20T18:18:08.520Z,22.90
2022-08-20T18:21:21.646Z,22.80
2022-08-20T18:24:13.866Z,22.80
2022-08-20T18:27:11.273Z,22.70
2022-08-20T18:30:01.292Z,22.60
2022-08-20T18:32:52.357Z,22.50
2022-08-20T18:35:45.840Z,22.40
2022-08-20T18:38:41.685Z,22.30
2022-08-20T18:41:33.085Z,22.30
2022-08-20T18:44:35.180Z,22.10
2022-08-20T18:47:45.222Z,22.10
2022-08-20T18:50:46.262Z,21.90
2022-08-20T18:53:35.659Z,21.80
2022-08-20T18:56:37.230Z,21.80
2022-08-20T18:59:26.146Z,21.60
2022-08-20T19:02:23.853Z,21.50
2022-08-20T19:05:14.121Z,21.40
2022-08-20T19:08:06.213Z,21.40
2022-08-20T19:10:59.873Z,21.30
2022-08-20T19:14:14.868Z,21.20
2022-08-20T19:17:10.984Z,21.10
2022-08-20T19:20:01.951Z,21.00
2022-08-20T19:22:52.047Z,20.90
2022-08-20T19:25:52.944Z,20.90
2022-08-20T19:28:44.434Z,20.80
2022-08-20T19:31:36.316Z,20.60
2022-08-20T19:34:26.282Z,20.60
2022-08-20T19:37:35.009Z,20.50
2022-08-20T19:40:28.921Z,20.40
2022-08-20T19:43:21.400Z,20.30
2022-08-20T19:46:12.157Z,20.20
2022-08-20T19:49:26.405Z,20.20
2022-08-20T19:52:37.298Z,20.10
2022-08-20T19:55:36.654Z,20.00
2022-08-20T19:58:34.719Z,19.90
2022-08-20T20:01:30.745Z,19.80
2022-08-20T20:04:37.623Z,19.80
2022-08-20T20:08:15.844Z,19.70
2022-08-20T20:11:05.815Z,19.60
2022-08-20T20:13:55.752Z,19.60
2022-08-20T20:16:44.233Z,19.60
2022-08-20T20:20:07.769Z,19.40
2022-08-20T20:23:05.788Z,19.40
2022-08-20T20:25:59.973Z,19.30
2022-08-20T20:28:50.573Z,19.20
2022-08-20T20:31:58.243Z,19.10
2022-08-20T20:35:01.287Z,19.10
2022-08-20T20:38:24.201Z,19.00
2022-08-20T20:41:54.314Z,18.90
2022-08-20T20:45:25.730Z,18.80
2022-08-20T20:48:26.094Z,18.80
2022-08-20T20:51:20.979Z,18.70
2022-08-20T20:54:45.619Z,18.70
2022-08-20T20:57:56.399Z,18.60
2022-08-20T21:00:52.137Z,18.50
2022-08-20T21:04:07.610Z,18.40
2022-08-20T21:07:28.389Z,18.40
2022-08-20T21:10:21.791Z,18.40
2022-08-20T21:13:23.711Z,18.30
2022-08-20T21:16:12.275Z,18.20
2022-08-20T21:22:26.973Z,18.10
2022-08-20T21:25:54.551Z,18.10
2022-08-20T21:28:55.976Z,18.00
2022-08-20T21:32:15.385Z,17.90
2022-08-20T21:35:03.859Z,17.90
2022-08-20T21:38:07.537Z,17.80
2022-08-20T21:41:29.569Z,17.80
2022-08-20T21:44:24.890Z,17.70
2022-08-20T21:47:13.711Z,17.70
2022-08-20T21:53:29.734Z,17.50
2022-08-20T21:56:24.278Z,17.50
2022-08-20T21:59:40.940Z,17.50
2022-08-20T22:02:44.330Z,17.50
2022-08-20T22:05:50.821Z,17.50
2022-08-20T22:12:11.262Z,17.30
2022-08-20T22:16:25.037Z,17.30
2022-08-20T22:19:04.730Z,17.10
2022-08-20T22:22:19.957Z,17.20
2022-08-20T22:25:28.760Z,17.10
2022-08-20T22:28:53.837Z,17.10
2022-08-20T22:31:46.958Z,16.90
2022-08-20T22:34:45.058Z,17.00
2022-08-20T22:37:54.240Z,16.90
2022-08-20T22:40:51.475Z,16.90
2022-08-20T22:43:57.110Z,16.80
2022-08-20T22:46:56.994Z,16.80
2022-08-20T22:49:48.473Z,16.70
2022-08-20T22:53:00.383Z,16.70
2022-08-20T22:56:09.612Z,16.70
2022-08-20T22:59:37.388Z,16.70
2022-08-20T23:03:18.094Z,16.60
2022-08-20T23:06:21.629Z,16.60
2022-08-20T23:09:21.082Z,16.50
2022-08-20T23:12:28.563Z,16.40
2022-08-20T23:15:57.243Z,16.40
2022-08-20T23:19:14.241Z,16.40
2022-08-20T23:22:22.062Z,16.30
2022-08-20T23:25:32.920Z,16.30
2022-08-20T23:28:24.217Z,16.20
2022-08-20T23:31:33.653Z,16.20
2022-08-20T23:34:23.400Z,16.20
2022-08-20T23:37:21.104Z,16.20
2022-08-20T23:40:34.203Z,16.20
2022-08-20T23:43:27.342Z,16.10
2022-08-20T23:46:37.504Z,16.10
2022-08-20T23:49:44.571Z,16.10
2022-08-20T23:52:46.161Z,16.00
2022-08-20T23:55:40.447Z,16.00
2022-08-20T23:58:43.866Z,15.90
